Time;durP1;ratioP1;P1;durP2;ratioP2;P2;SDS_P1;SDS_P2;PMS_P1;PMS_P2;Temp;Humidity;BMP_temperature;BMP_pressure;BME280_temperature;BME280_humidity;BME280_pressure;Samples;Min_cycle;Max_cycle;Signal;HPM_P1;HPM_P2
2022/11/14 00:00:24;;;;;;;5.60;5.10;;;20.00;86.10;;;;;;5033745;28;20445;-59
2022/11/14 00:02:51;;;;;;;5.73;5.33;;;20.00;86.20;;;;;;5033849;28;20978;-62
2022/11/14 00:05:18;;;;;;;6.40;6.00;;;20.00;86.20;;;;;;5033376;28;20528;-63
2022/11/14 00:07:46;;;;;;;5.80;5.40;;;19.90;86.00;;;;;;5033476;28;20452;-62
2022/11/14 00:10:15;;;;;;;5.77;5.30;;;19.90;86.10;;;;;;5033670;28;20483;-63
2022/11/14 00:12:41;;;;;;;5.80;5.43;;;19.90;86.10;;;;;;5033200;28;20480;-60
2022/11/14 00:15:10;;;;;;;6.10;5.50;;;19.90;86.10;;;;;;5033349;28;20901;-63
2022/11/14 00:17:37;;;;;;;8.20;7.80;;;19.90;86.20;;;;;;5033826;28;20454;-64
2022/11/14 00:20:06;;;;;;;5.40;5.10;;;19.90;86.20;;;;;;5033232;28;21055;-64
2022/11/14 00:22:33;;;;;;;5.53;5.13;;;19.90;86.30;;;;;;5033703;28;20484;-61
2022/11/14 00:25:00;;;;;;;5.63;5.17;;;19.90;86.30;;;;;;5033697;28;20527;-61
2022/11/14 00:27:29;;;;;;;6.83;6.37;;;19.90;86.30;;;;;;5033209;28;20537;-60
2022/11/14 00:29:55;;;;;;;6.33;6.00;;;19.90;86.20;;;;;;5032630;28;20483;-60
2022/11/14 00:32:22;;;;;;;5.67;5.27;;;19.80;86.30;;;;;;5033058;28;20998;-64
2022/11/14 00:34:49;;;;;;;5.83;5.43;;;19.80;86.30;;;;;;5033270;28;20796;-58
2022/11/14 00:37:16;;;;;;;5.70;5.20;;;19.80;86.30;;;;;;5032782;28;20452;-64
2022/11/14 00:39:43;;;;;;;8.07;5.73;;;19.80;86.30;;;;;;5033401;28;20448;-62
2022/11/14 00:42:10;;;;;;;5.33;4.93;;;19.80;86.30;;;;;;5031869;28;20477;-60
2022/11/14 00:44:39;;;;;;;6.10;5.70;;;19.80;86.40;;;;;;5033339;28;20461;-63
2022/11/14 00:47:05;;;;;;;6.53;6.03;;;19.80;86.30;;;;;;5032034;28;20445;-63
2022/11/14 00:49:32;;;;;;;6.20;5.77;;;19.80;86.40;;;;;;5032604;28;20480;-60
2022/11/14 00:51:59;;;;;;;6.83;6.20;;;19.80;86.40;;;;;;5032620;28;20912;-59
2022/11/14 00:54:26;;;;;;;5.93;5.50;;;19.80;86.20;;;;;;5032664;28;20536;-64
2022/11/14 00:56:53;;;;;;;7.10;6.50;;;19.80;86.40;;;;;;5032393;28;20787;-64
2022/11/14 00:59:20;;;;;;;5.60;5.30;;;19.80;86.50;;;;;;5032693;28;20531;-63
2022/11/14 01:01:48;;;;;;;6.07;5.77;;;19.70;87.10;;;;;;5032067;28;21053;-58
2022/11/14 01:04:15;;;;;;;6.70;6.20;;;19.80;86.30;;;;;;5032498;28;20441;-62
2022/11/14 01:06:42;;;;;;;6.03;5.63;;;19.70;86.20;;;;;;5032345;28;20633;-58
2022/11/14 01:09:10;;;;;;;5.57;5.23;;;19.70;86.10;;;;;;5032374;28;20619;-64
2022/11/14 01:11:37;;;;;;;5.27;5.03;;;19.70;86.10;;;;;;5032323;28;20504;-62
2022/11/14 01:14:06;;;;;;;6.20;5.60;;;19.70;86.10;;;;;;5032273;28;20528;-59
2022/11/14 01:16:34;;;;;;;6.07;5.57;;;19.70;86.10;;;;;;5032044;28;21017;-62
2022/11/14 01:19:03;;;;;;;6.00;5.40;;;19.70;86.10;;;;;;5031951;28;20460;-61
2022/11/14 01:21:30;;;;;;;5.80;5.50;;;19.70;86.10;;;;;;5031800;28;20907;-60
2022/11/14 01:23:57;;;;;;;5.10;4.80;;;19.60;86.00;;;;;;5032212;28;20467;-61
2022/11/14 01:26:24;;;;;;;5.70;5.40;;;19.60;85.90;;;;;;5032035;28;20883;-63
2022/11/14 01:28:50;;;;;;;6.50;6.00;;;19.60;85.80;;;;;;5032163;28;20923;-60
2022/11/14 01:31:20;;;;;;;6.43;5.97;;;19.60;85.80;;;;;;5031926;28;20853;-60
2022/11/14 01:33:49;;;;;;;6.10;5.70;;;19.60;85.90;;;;;;5031980;28;20450;-60
2022/11/14 01:36:18;;;;;;;6.10;5.70;;;19.60;85.90;;;;;;5031359;28;21024;-63
2022/11/14 01:38:46;;;;;;;5.93;5.53;;;19.60;85.80;;;;;;5031840;28;20833;-60
2022/11/14 01:41:15;;;;;;;6.00;5.53;;;19.60;85.70;;;;;;5031803;28;20481;-63
2022/11/14 01:43:43;;;;;;;6.63;6.23;;;19.60;85.80;;;;;;5032170;28;20540;-61
2022/11/14 01:46:14;;;;;;;5.90;5.60;;;19.60;85.80;;;;;;5031898;28;20451;-59
2022/11/14 01:48:44;;;;;;;5.37;5.10;;;19.60;85.70;;;;;;5032022;28;20449;-64
2022/11/14 01:51:21;;;;;;;5.60;5.30;;;19.60;85.80;;;;;;5031570;28;20485;-63
2022/11/14 01:53:51;;;;;;;6.13;5.73;;;19.50;85.70;;;;;;5029967;28;20540;-60
2022/11/14 01:56:22;;;;;;;5.30;5.00;;;19.50;85.60;;;;;;5031916;28;20507;-59
2022/11/14 01:58:54;;;;;;;5.63;5.23;;;19.50;85.60;;;;;;5031656;28;20486;-62
2022/11/14 02:01:21;;;;;;;6.27;5.87;;;19.50;85.70;;;;;;5031476;28;20465;-65
2022/11/14 02:03:52;;;;;;;5.60;5.30;;;19.50;85.70;;;;;;5031719;28;20945;-61
2022/11/14 02:06:23;;;;;;;7.07;6.57;;;19.50;85.70;;;;;;5031878;28;20467;-60
2022/11/14 02:08:52;;;;;;;6.47;6.07;;;19.50;85.70;;;;;;5031312;28;20444;-60
2022/11/14 02:11:19;;;;;;;5.90;5.40;;;19.50;85.60;;;;;;5031620;28;20484;-59
2022/11/14 02:13:46;;;;;;;5.70;5.40;;;19.50;85.60;;;;;;5031683;28;20479;-58
2022/11/14 02:16:13;;;;;;;6.60;5.20;;;19.50;85.60;;;;;;5031767;28;20460;-64
2022/11/14 02:18:40;;;;;;;6.00;5.60;;;19.50;85.50;;;;;;5031536;28;20961;-60
2022/11/14 02:21:08;;;;;;;6.20;5.80;;;19.50;85.40;;;;;;5031393;28;20456;-58
2022/11/14 02:23:35;;;;;;;5.60;5.30;;;19.50;85.40;;;;;;5031598;28;20901;-59
2022/11/14 02:26:02;;;;;;;5.90;5.47;;;19.50;85.30;;;;;;5031254;28;20452;-63
2022/11/14 02:28:29;;;;;;;6.27;5.77;;;19.40;85.30;;;;;;5031534;28;20871;-59
2022/11/14 02:30:56;;;;;;;6.80;6.30;;;19.40;85.20;;;;;;5031277;28;20575;-63
2022/11/14 02:33:23;;;;;;;7.53;7.03;;;19.40;85.60;;;;;;5031513;28;20449;-62
2022/11/14 02:35:50;;;;;;;6.50;6.10;;;19.40;85.70;;;;;;5031485;28;20519;-60
2022/11/14 02:38:18;;;;;;;5.63;5.13;;;19.40;85.80;;;;;;5031246;28;20536;-60
2022/11/14 02:40:45;;;;;;;9.90;6.60;;;19.40;85.70;;;;;;5031185;28;20528;-61
2022/11/14 02:43:12;;;;;;;6.93;6.43;;;19.30;85.70;;;;;;5031233;28;20795;-62
2022/11/14 02:45:39;;;;;;;6.37;5.97;;;19.40;85.80;;;;;;5031108;28;20942;-60
2022/11/14 02:48:07;;;;;;;6.40;5.90;;;19.30;85.60;;;;;;5031026;28;20842;-58
2022/11/14 02:50:34;;;;;;;5.93;5.53;;;19.30;85.60;;;;;;5031368;28;20530;-60
2022/11/14 02:53:01;;;;;;;5.33;5.13;;;19.30;85.60;;;;;;5031222;28;20468;-62
2022/11/14 02:55:29;;;;;;;5.67;5.27;;;19.30;85.60;;;;;;5031150;28;20445;-60
2022/11/14 02:57:56;;;;;;;6.27;5.77;;;19.30;85.60;;;;;;5030810;28;20541;-60
2022/11/14 03:00:23;;;;;;;6.63;6.20;;;19.30;85.50;;;;;;5031049;28;21114;-60
2022/11/14 03:02:49;;;;;;;6.17;5.77;;;19.30;85.50;;;;;;5031074;28;20889;-61
2022/11/14 03:05:16;;;;;;;6.63;6.30;;;19.30;85.50;;;;;;5032226;28;20451;-61
2022/11/14 03:07:43;;;;;;;6.67;6.17;;;19.30;85.30;;;;;;5034594;28;20459;-62
2022/11/14 03:10:12;;;;;;;6.00;5.67;;;19.30;85.30;;;;;;5034550;28;20700;-60
2022/11/14 03:12:41;;;;;;;6.30;5.90;;;19.30;85.30;;;;;;5034458;28;20475;-61
2022/11/14 03:15:09;;;;;;;6.63;6.23;;;19.30;85.30;;;;;;5034218;28;20488;-62
2022/11/14 03:17:36;;;;;;;6.83;6.33;;;19.30;85.20;;;;;;5034259;28;20469;-58
2022/11/14 03:20:03;;;;;;;5.50;5.20;;;19.20;85.10;;;;;;5034480;28;20467;-63
2022/11/14 03:22:30;;;;;;;6.33;5.83;;;19.20;85.00;;;;;;5034316;28;20465;-59
2022/11/14 03:24:57;;;;;;;6.00;5.63;;;19.20;84.90;;;;;;5034202;28;20531;-64
2022/11/14 03:27:24;;;;;;;5.67;5.37;;;19.20;85.00;;;;;;5034276;28;20464;-62
2022/11/14 03:29:52;;;;;;;6.33;5.93;;;19.20;85.00;;;;;;5034232;28;20565;-58
2022/11/14 03:32:20;;;;;;;6.23;5.73;;;19.20;85.00;;;;;;5033778;28;20500;-62
2022/11/14 03:34:46;;;;;;;6.10;5.70;;;19.20;85.00;;;;;;5035622;28;20481;-66
2022/11/14 03:37:13;;;;;;;6.20;5.90;;;19.20;85.00;;;;;;5037217;28;20811;-64
2022/11/14 03:39:40;;;;;;;6.20;5.80;;;19.20;85.00;;;;;;5039539;28;20524;-65
2022/11/14 03:42:08;;;;;;;5.87;5.50;;;19.20;85.00;;;;;;5040025;28;20556;-66
2022/11/14 03:44:35;;;;;;;4.97;4.77;;;19.20;84.90;;;;;;5041722;28;20449;-65
2022/11/14 03:47:03;;;;;;;6.00;5.70;;;19.20;84.80;;;;;;5041055;28;20524;-65
2022/11/14 03:49:30;;;;;;;6.60;6.10;;;19.20;84.90;;;;;;5040817;28;20448;-64
2022/11/14 03:51:58;;;;;;;6.77;6.37;;;19.10;84.70;;;;;;5040201;28;20572;-66
2022/11/14 03:54:25;;;;;;;6.30;6.00;;;19.10;84.70;;;;;;5039569;28;20445;-65
2022/11/14 03:56:52;;;;;;;6.93;6.47;;;19.10;84.70;;;;;;5038478;28;20476;-65
2022/11/14 03:59:18;;;;;;;6.20;5.80;;;19.10;84.70;;;;;;5039223;28;20855;-65
2022/11/14 04:01:45;;;;;;;6.00;5.60;;;19.10;85.40;;;;;;5039483;28;20465;-66
2022/11/14 04:04:14;;;;;;;5.87;5.57;;;19.10;84.60;;;;;;5039104;28;20513;-64
2022/11/14 04:06:41;;;;;;;5.87;5.53;;;19.10;84.50;;;;;;5047201;28;20464;-64
2022/11/14 04:09:08;;;;;;;6.43;5.93;;;19.10;84.50;;;;;;5047859;28;20483;-65
2022/11/14 04:11:35;;;;;;;9.90;7.00;;;19.10;84.40;;;;;;5047663;28;20481;-65
2022/11/14 04:14:01;;;;;;;5.67;5.40;;;19.10;84.40;;;;;;5047720;28;20484;-65
2022/11/14 04:16:29;;;;;;;6.00;5.70;;;19.10;84.40;;;;;;5046166;28;20469;-63
2022/11/14 04:18:56;;;;;;;6.40;5.97;;;19.00;84.30;;;;;;5046543;28;20445;-64
2022/11/14 04:21:24;;;;;;;5.93;5.50;;;19.10;85.20;;;;;;5041621;28;20993;-63
2022/11/14 04:23:51;;;;;;;6.70;6.30;;;19.00;84.30;;;;;;5036425;28;20469;-65
2022/11/14 04:26:18;;;;;;;6.60;6.10;;;19.00;84.40;;;;;;5036788;28;20536;-65
2022/11/14 04:28:45;;;;;;;6.53;6.13;;;19.00;84.40;;;;;;5036652;28;20813;-63
2022/11/14 04:31:12;;;;;;;6.33;6.03;;;19.00;84.40;;;;;;5035047;28;20568;-61
2022/11/14 04:33:39;;;;;;;5.83;5.47;;;19.00;84.30;;;;;;5035692;28;20472;-61
2022/11/14 04:36:07;;;;;;;7.03;6.43;;;19.00;84.40;;;;;;5035572;28;20849;-61
2022/11/14 04:38:35;;;;;;;6.63;6.13;;;19.00;84.30;;;;;;5034301;28;20481;-63
2022/11/14 04:41:02;;;;;;;6.60;6.10;;;19.00;84.30;;;;;;5034860;28;20465;-62
2022/11/14 04:43:29;;;;;;;5.70;5.40;;;19.00;84.30;;;;;;5033965;28;20528;-62
2022/11/14 04:45:56;;;;;;;6.23;5.93;;;19.00;84.10;;;;;;5035000;28;20536;-63
2022/11/14 04:48:22;;;;;;;6.70;6.20;;;19.00;84.10;;;;;;5034761;28;20531;-60
2022/11/14 04:50:49;;;;;;;5.97;5.57;;;18.90;83.90;;;;;;5034051;28;20486;-66
2022/11/14 04:53:16;;;;;;;5.83;5.53;;;19.00;83.80;;;;;;5034626;28;20862;-63
2022/11/14 04:55:45;;;;;;;6.07;5.70;;;19.00;83.80;;;;;;5033958;28;20445;-64
2022/11/14 04:58:12;;;;;;;7.13;6.50;;;19.00;83.70;;;;;;5034442;28;20440;-61
2022/11/14 05:00:43;;;;;;;6.47;6.10;;;19.00;85.30;;;;;;5033906;28;20445;-61
2022/11/14 05:03:10;;;;;;;6.20;5.87;;;19.10;84.60;;;;;;5033465;28;20528;-60
2022/11/14 05:05:37;;;;;;;6.27;5.90;;;19.10;83.90;;;;;;5033385;28;20452;-59
2022/11/14 05:08:06;;;;;;;6.57;6.10;;;19.10;83.80;;;;;;5033462;28;20457;-59
2022/11/14 05:10:33;;;;;;;6.03;5.73;;;19.10;83.80;;;;;;5033305;28;20480;-60
2022/11/14 05:13:02;;;;;;;5.93;5.63;;;19.20;83.90;;;;;;5032720;28;20471;-61
2022/11/14 05:15:30;;;;;;;6.10;5.80;;;19.20;83.80;;;;;;5033458;28;21156;-58
2022/11/14 05:17:57;;;;;;;6.43;6.07;;;19.20;83.80;;;;;;5032718;28;20814;-58
2022/11/14 05:20:24;;;;;;;5.43;5.10;;;19.20;83.70;;;;;;5032269;28;20445;-59
2022/11/14 05:22:54;;;;;;;5.60;5.37;;;19.30;83.70;;;;;;5033047;28;20511;-61
2022/11/14 05:25:20;;;;;;;5.70;5.50;;;19.30;84.50;;;;;;5033065;28;20441;-63
2022/11/14 05:27:47;;;;;;;6.13;5.73;;;19.40;84.80;;;;;;5032694;28;20514;-64
2022/11/14 05:30:16;;;;;;;5.77;5.57;;;19.40;84.90;;;;;;5032354;28;20451;-62
2022/11/14 05:32:43;;;;;;;6.30;5.90;;;19.40;84.70;;;;;;5032143;28;20543;-50
2022/11/14 05:35:10;;;;;;;6.20;5.70;;;19.50;84.40;;;;;;5031974;28;20481;-52
2022/11/14 05:37:37;;;;;;;6.50;6.10;;;19.50;84.50;;;;;;5031715;28;20863;-56
2022/11/14 05:40:06;;;;;;;6.10;5.80;;;19.50;84.50;;;;;;5031986;28;20487;-58
2022/11/14 05:42:33;;;;;;;6.50;6.10;;;19.50;84.50;;;;;;5032418;28;20910;-57
2022/11/14 05:45:00;;;;;;;6.10;5.80;;;19.60;84.10;;;;;;5031575;28;20898;-56
2022/11/14 05:47:28;;;;;;;6.33;6.03;;;19.60;83.90;;;;;;5031690;28;20540;-56
2022/11/14 05:49:55;;;;;;;6.33;6.03;;;19.70;83.70;;;;;;5031964;28;20472;-57
2022/11/14 05:52:22;;;;;;;6.53;6.23;;;19.70;83.50;;;;;;5031898;28;20571;-57
2022/11/14 05:54:48;;;;;;;5.60;5.30;;;19.70;83.30;;;;;;5032051;28;20479;-56
2022/11/14 05:57:16;;;;;;;6.60;6.27;;;19.80;83.30;;;;;;5030831;28;20441;-58
2022/11/14 05:59:43;;;;;;;5.53;5.33;;;19.70;83.00;;;;;;5031364;28;20451;-54
2022/11/14 06:02:10;;;;;;;5.73;5.53;;;19.80;82.80;;;;;;5031920;28;20552;-56
2022/11/14 06:04:38;;;;;;;6.50;6.20;;;19.80;82.80;;;;;;5031828;28;20528;-56
2022/11/14 06:07:05;;;;;;;5.80;5.50;;;19.80;82.60;;;;;;5031682;28;21025;-57
2022/11/14 06:09:32;;;;;;;6.93;6.53;;;19.90;83.40;;;;;;5032691;28;20445;-52
2022/11/14 06:11:59;;;;;;;6.20;5.90;;;19.90;82.40;;;;;;5031797;28;20842;-51
2022/11/14 06:14:26;;;;;;;6.63;6.30;;;19.90;82.20;;;;;;5031095;28;20449;-50
2022/11/14 06:16:53;;;;;;;5.80;5.50;;;19.90;82.00;;;;;;5029489;28;20963;-51
2022/11/14 06:19:20;;;;;;;6.70;6.40;;;20.00;82.20;;;;;;5031515;28;20491;-50
2022/11/14 06:21:49;;;;;;;6.27;5.97;;;20.10;83.50;;;;;;5031538;28;20883;-54
2022/11/14 06:24:16;;;;;;;6.40;6.10;;;20.30;83.30;;;;;;5031880;28;20547;-50
2022/11/14 06:26:43;;;;;;;5.83;5.57;;;20.50;82.80;;;;;;5031753;28;20472;-51
2022/11/14 06:29:10;;;;;;;6.00;5.70;;;20.60;82.30;;;;;;5031374;28;20822;-54
2022/11/14 06:31:37;;;;;;;6.37;6.07;;;20.60;81.80;;;;;;5031408;28;20856;-55
2022/11/14 06:34:05;;;;;;;5.70;5.30;;;20.70;81.40;;;;;;5031590;28;20544;-52
2022/11/14 06:36:32;;;;;;;5.50;5.30;;;20.80;81.10;;;;;;5031620;28;20445;-53
2022/11/14 06:39:00;;;;;;;5.63;5.40;;;20.90;80.60;;;;;;5031827;28;20815;-52
2022/11/14 06:41:27;;;;;;;5.40;5.20;;;20.90;80.30;;;;;;5034210;28;20472;-53
2022/11/14 06:43:54;;;;;;;5.77;5.47;;;20.90;79.80;;;;;;5035652;28;20822;-50
2022/11/14 06:46:23;;;;;;;6.00;5.70;;;21.00;79.50;;;;;;5035882;28;20551;-51
2022/11/14 06:48:51;;;;;;;5.20;5.00;;;21.00;79.10;;;;;;5035469;28;20800;-53
2022/11/14 06:51:18;;;;;;;6.10;5.70;;;21.10;78.90;;;;;;5035575;28;20489;-49
2022/11/14 06:53:45;;;;;;;6.17;5.97;;;21.10;78.60;;;;;;5036332;28;20503;-48
2022/11/14 06:56:16;;;;;;;5.53;5.33;;;21.20;78.50;;;;;;5035310;28;20535;-48
2022/11/14 06:58:45;;;;;;;5.33;5.13;;;21.30;78.30;;;;;;5034795;28;20817;-55
2022/11/14 07:01:13;;;;;;;5.23;5.03;;;21.30;77.90;;;;;;5035035;28;21081;-49
2022/11/14 07:03:41;;;;;;;5.60;5.40;;;21.40;77.50;;;;;;5035091;28;20858;-57
2022/11/14 07:06:10;;;;;;;6.57;6.27;;;21.40;77.00;;;;;;5035177;28;20441;-53
2022/11/14 07:08:37;;;;;;;5.50;5.30;;;21.50;76.70;;;;;;5035274;28;20490;-57
2022/11/14 07:11:05;;;;;;;5.80;5.60;;;21.50;76.30;;;;;;5035132;28;20495;-51
2022/11/14 07:13:35;;;;;;;6.17;5.87;;;21.50;76.00;;;;;;5034953;28;20981;-53
2022/11/14 07:16:03;;;;;;;5.50;5.30;;;21.50;75.60;;;;;;5035098;28;20531;-54
2022/11/14 07:18:31;;;;;;;5.87;5.57;;;21.60;75.40;;;;;;5034173;28;20453;-51
2022/11/14 07:20:59;;;;;;;6.10;5.90;;;21.60;75.10;;;;;;5035315;28;20480;-55
2022/11/14 07:23:26;;;;;;;6.40;6.00;;;21.60;74.80;;;;;;5034962;28;20449;-58
2022/11/14 07:25:53;;;;;;;5.87;5.67;;;21.70;74.70;;;;;;5035129;28;20481;-52
2022/11/14 07:28:20;;;;;;;5.60;5.40;;;21.70;74.40;;;;;;5035179;28;20962;-55
2022/11/14 07:30:49;;;;;;;5.37;5.10;;;21.70;74.10;;;;;;5034557;28;20443;-57
2022/11/14 07:33:15;;;;;;;5.57;5.30;;;21.70;74.10;;;;;;5035106;28;20448;-61
2022/11/14 07:35:42;;;;;;;5.83;5.63;;;21.60;72.90;;;;;;5035145;28;20447;-61
2022/11/14 07:38:09;;;;;;;5.53;5.33;;;21.40;72.30;;;;;;5033788;28;20536;-64
2022/11/14 07:40:36;;;;;;;5.67;5.47;;;21.30;72.60;;;;;;5034138;28;20484;-60
2022/11/14 07:43:04;;;;;;;6.37;5.77;;;21.30;73.10;;;;;;5034464;28;21008;-60
2022/11/14 07:45:31;;;;;;;6.50;6.17;;;21.30;73.00;;;;;;5034926;28;20935;-60
2022/11/14 07:48:01;;;;;;;5.90;5.57;;;21.40;73.30;;;;;;5034619;28;20876;-63
2022/11/14 07:50:29;;;;;;;6.00;5.70;;;21.40;73.50;;;;;;5034336;28;20451;-63
2022/11/14 07:52:57;;;;;;;6.20;6.00;;;21.40;73.90;;;;;;5034127;28;20481;-59
2022/11/14 07:55:25;;;;;;;5.37;5.17;;;21.50;74.20;;;;;;5034830;28;20441;-59
2022/11/14 07:57:58;;;;;;;5.33;5.13;;;21.50;74.20;;;;;;5032907;28;20457;-57
2022/11/14 08:00:25;;;;;;;5.90;5.60;;;21.50;76.00;;;;;;5034999;28;20536;-63
2022/11/14 08:02:52;;;;;;;5.63;5.43;;;21.60;76.70;;;;;;5033923;28;20481;-58
2022/11/14 08:05:20;;;;;;;6.10;5.80;;;21.70;75.30;;;;;;5037763;28;20453;-57
2022/11/14 08:07:50;;;;;;;5.10;4.90;;;21.80;73.70;;;;;;5034730;28;20448;-63
2022/11/14 08:10:17;;;;;;;6.10;5.80;;;21.80;73.00;;;;;;5032366;28;20456;-58
2022/11/14 08:12:45;;;;;;;5.13;4.77;;;21.90;77.40;;;;;;5035266;28;20527;-63
2022/11/14 08:15:14;;;;;;;5.70;5.50;;;22.00;76.30;;;;;;5033660;28;20455;-60
2022/11/14 08:17:41;;;;;;;6.53;6.23;;;22.20;74.30;;;;;;5034114;28;20447;-60
2022/11/14 08:20:11;;;;;;;6.47;5.77;;;22.20;72.80;;;;;;5034027;28;20548;-61
2022/11/14 08:22:39;;;;;;;5.40;5.10;;;22.10;70.80;;;;;;5033995;28;21076;-60
2022/11/14 08:25:07;;;;;;;5.10;4.90;;;22.10;70.00;;;;;;5034231;28;20444;-60
2022/11/14 08:27:33;;;;;;;5.70;5.40;;;22.10;69.60;;;;;;5032066;28;20442;-62
2022/11/14 08:30:00;;;;;;;5.50;5.30;;;22.20;70.40;;;;;;5033893;28;20527;-61
2022/11/14 08:32:27;;;;;;;5.40;5.20;;;22.30;69.50;;;;;;5033367;28;20572;-61
2022/11/14 08:34:55;;;;;;;6.20;5.80;;;22.50;67.60;;;;;;5035181;28;20484;-62
2022/11/14 08:37:22;;;;;;;5.63;5.43;;;22.60;66.50;;;;;;5034680;28;20445;-61
2022/11/14 08:39:50;;;;;;;5.50;5.30;;;22.70;65.90;;;;;;5034532;28;20532;-61
2022/11/14 08:42:17;;;;;;;6.10;5.70;;;22.70;65.10;;;;;;5033832;28;20560;-61
2022/11/14 09:08:21;;;;;;;7.13;6.50;;;22.30;67.50;;;;;;5014669;28;20386;-55
2022/11/14 09:10:50;;;;;;;6.70;6.00;;;22.20;69.50;;;;;;5021649;28;20441;-57
2022/11/14 09:13:17;;;;;;;6.13;5.50;;;22.20;69.40;;;;;;5034516;28;20484;-59
2022/11/14 09:15:45;;;;;;;6.63;6.10;;;22.20;70.40;;;;;;5034964;28;20528;-58
2022/11/14 09:18:14;;;;;;;6.60;6.20;;;22.20;69.00;;;;;;5035212;28;20449;-55
2022/11/14 09:20:41;;;;;;;6.17;5.90;;;22.30;69.10;;;;;;5033314;28;20454;-56
2022/11/14 09:23:09;;;;;;;7.30;6.80;;;22.30;68.70;;;;;;5034393;28;20453;-56
2022/11/14 09:25:38;;;;;;;7.73;6.80;;;22.30;66.90;;;;;;5036458;28;20766;-55
2022/11/14 09:28:06;;;;;;;6.67;6.17;;;22.20;66.40;;;;;;5034075;28;20445;-57
2022/11/14 09:30:35;;;;;;;6.50;5.97;;;22.10;66.20;;;;;;5035795;28;20463;-55
2022/11/14 09:33:02;;;;;;;6.43;6.10;;;22.10;66.10;;;;;;5034909;28;20488;-58
2022/11/14 09:35:30;;;;;;;6.70;6.30;;;22.10;65.80;;;;;;5033513;28;20452;-54
2022/11/14 09:38:01;;;;;;;7.07;6.40;;;22.10;65.80;;;;;;5033001;28;20445;-55
2022/11/14 09:40:28;;;;;;;8.43;7.47;;;22.10;66.10;;;;;;5033109;28;20536;-52
2022/11/14 09:43:15;;;;;;;10.03;8.43;;;22.10;66.50;;;;;;5032288;28;20468;-53
2022/11/14 09:45:48;;;;;;;7.07;6.47;;;22.00;65.60;;;;;;5035361;28;20442;-58
2022/11/14 09:48:20;;;;;;;8.43;7.73;;;22.00;65.60;;;;;;5035680;28;20469;-57
2022/11/14 09:50:55;;;;;;;7.60;7.00;;;22.00;65.40;;;;;;5035491;28;20513;-59
2022/11/14 09:53:29;;;;;;;7.10;6.37;;;22.00;67.30;;;;;;5034761;28;20534;-58
2022/11/14 09:55:58;;;;;;;7.40;6.87;;;22.00;73.10;;;;;;5033293;28;20536;-62
2022/11/14 09:58:28;;;;;;;9.03;7.53;;;22.00;72.20;;;;;;5032790;28;20484;-59
2022/11/14 10:01:00;;;;;;;8.07;7.47;;;22.00;71.60;;;;;;5032535;28;20528;-56
2022/11/14 10:03:36;;;;;;;7.10;6.50;;;22.00;71.20;;;;;;5031674;28;20484;-59
2022/11/14 10:06:24;;;;;;;7.07;6.57;;;22.00;70.60;;;;;;5032369;28;20445;-59
2022/11/14 10:09:02;;;;;;;7.67;7.20;;;22.00;70.10;;;;;;5032095;28;20958;-57
2022/11/14 10:11:35;;;;;;;7.00;6.60;;;22.10;70.00;;;;;;5031600;28;20487;-56
2022/11/14 10:14:29;;;;;;;9.73;8.83;;;22.10;69.80;;;;;;5032497;28;20788;-52
2022/11/14 10:17:08;;;;;;;8.07;7.60;;;22.10;69.70;;;;;;5035650;28;20463;-56
2022/11/14 10:19:41;;;;;;;13.17;9.20;;;22.10;68.90;;;;;;5036290;28;20445;-61
2022/11/14 10:22:21;;;;;;;10.03;9.03;;;22.20;69.40;;;;;;5035814;28;20867;-60
2022/11/14 10:25:07;;;;;;;9.30;8.60;;;22.20;69.10;;;;;;5035740;28;20496;-59
2022/11/14 10:27:40;;;;;;;8.67;8.07;;;22.20;68.80;;;;;;5035645;28;20935;-58
2022/11/14 10:30:14;;;;;;;10.20;9.50;;;22.30;68.70;;;;;;5035364;28;20480;-57
2022/11/14 10:32:53;;;;;;;8.53;7.70;;;22.30;68.60;;;;;;5035716;28;20567;-60
2022/11/14 10:35:23;;;;;;;8.90;8.20;;;22.30;68.40;;;;;;5035608;28;20472;-58
2022/11/14 10:37:57;;;;;;;8.97;8.50;;;22.40;68.30;;;;;;5034924;28;20445;-60
2022/11/14 10:40:28;;;;;;;10.23;9.37;;;22.40;68.00;;;;;;5035224;28;20893;-59
2022/11/14 10:43:00;;;;;;;9.40;8.80;;;22.50;67.60;;;;;;5034845;28;20936;-59
2022/11/14 10:45:34;;;;;;;7.60;7.20;;;22.50;67.40;;;;;;5036465;28;20528;-59
2022/11/14 10:48:08;;;;;;;9.97;9.17;;;22.50;67.60;;;;;;5037869;28;20464;-59
2022/11/14 10:50:44;;;;;;;8.97;8.20;;;22.50;67.30;;;;;;5038189;28;20449;-59
2022/11/14 10:53:21;;;;;;;9.37;8.90;;;22.50;67.10;;;;;;5037313;28;20487;-56
2022/11/14 10:55:50;;;;;;;8.50;7.90;;;22.50;67.10;;;;;;5035794;28;20487;-57
2022/11/14 10:58:20;;;;;;;8.47;7.87;;;22.50;66.90;;;;;;5035913;28;20809;-60
2022/11/14 11:00:48;;;;;;;8.10;7.60;;;22.50;66.90;;;;;;5036094;28;20528;-56
2022/11/14 11:03:15;;;;;;;8.80;8.20;;;22.50;66.80;;;;;;5035171;28;20531;-54
2022/11/14 11:05:50;;;;;;;9.40;8.77;;;22.60;67.10;;;;;;5035622;28;20446;-51
2022/11/14 11:11:30;;;;;;;9.13;8.53;;;22.60;66.20;;;;;;5035877;28;20544;-54
2022/11/14 11:14:00;;;;;;;9.23;8.67;;;22.60;66.70;;;;;;5036146;28;20548;-51
2022/11/14 11:16:30;;;;;;;9.27;8.57;;;22.60;65.90;;;;;;5035493;28;20891;-54
2022/11/14 11:19:14;;;;;;;8.23;7.73;;;22.60;65.90;;;;;;5035102;28;20445;-52
2022/11/14 11:21:49;;;;;;;7.77;7.37;;;22.70;65.80;;;;;;5033945;28;20527;-51
2022/11/14 11:24:31;;;;;;;8.00;7.57;;;22.70;65.60;;;;;;5034476;28;20535;-56
2022/11/14 11:27:15;;;;;;;8.50;8.00;;;22.70;65.80;;;;;;5033686;28;20444;-52
2022/11/14 11:29:41;;;;;;;8.10;7.60;;;22.70;65.60;;;;;;5035219;28;20810;-53
2022/11/14 11:32:10;;;;;;;8.67;8.17;;;22.70;65.60;;;;;;5034254;28;20491;-53
2022/11/14 11:34:38;;;;;;;8.40;8.00;;;22.70;65.70;;;;;;5035249;28;20528;-58
2022/11/14 11:37:15;;;;;;;9.13;8.70;;;22.70;66.10;;;;;;5035450;28;20532;-57
2022/11/14 11:39:49;;;;;;;8.40;7.77;;;22.60;65.50;;;;;;5034834;28;20532;-57
2022/11/14 11:42:20;;;;;;;7.90;7.60;;;22.60;65.70;;;;;;5034238;28;20903;-65
2022/11/14 11:44:53;;;;;;;8.47;8.00;;;22.70;66.00;;;;;;5034018;28;20445;-56
2022/11/14 11:47:22;;;;;;;7.80;7.10;;;22.60;65.70;;;;;;5033683;28;20487;-56
2022/11/14 11:49:50;;;;;;;8.20;7.80;;;22.60;65.80;;;;;;5033533;28;20482;-58
2022/11/14 11:52:26;;;;;;;8.83;8.33;;;22.60;65.70;;;;;;5033681;28;20576;-58
2022/11/14 11:54:59;;;;;;;9.90;9.17;;;22.60;66.00;;;;;;5033804;28;20963;-58
2022/11/14 11:57:31;;;;;;;9.60;8.90;;;22.60;65.70;;;;;;5033404;28;20534;-60
2022/11/14 12:00:05;;;;;;;8.50;8.10;;;22.60;65.90;;;;;;5033416;28;20449;-52
2022/11/14 12:02:36;;;;;;;8.13;7.53;;;22.60;66.10;;;;;;5033421;28;20493;-53
2022/11/14 12:05:03;;;;;;;8.47;8.07;;;22.60;66.00;;;;;;5033284;28;20496;-56
2022/11/14 12:07:38;;;;;;;8.40;8.03;;;22.60;66.20;;;;;;5033179;28;20487;-53
2022/11/14 12:10:13;;;;;;;8.23;7.60;;;22.60;66.00;;;;;;5033243;28;20444;-53
2022/11/14 12:13:11;;;;;;;9.00;8.40;;;22.60;66.40;;;;;;5033292;28;20493;-55
2022/11/14 12:15:50;;;;;;;7.47;7.17;;;22.50;66.50;;;;;;5033467;28;20497;-57
2022/11/14 12:18:43;;;;;;;8.60;7.80;;;22.50;66.60;;;;;;5033090;28;20532;-58
2022/11/14 12:21:13;;;;;;;8.60;7.93;;;22.50;67.00;;;;;;5013468;28;20473;-57
2022/11/14 12:24:14;;;;;;;8.60;8.10;;;22.50;67.00;;;;;;5013901;28;20924;-57
2022/11/14 12:26:56;;;;;;;8.00;7.70;;;22.50;67.20;;;;;;5013770;28;20532;-60
2022/11/14 12:29:41;;;;;;;8.53;8.13;;;22.40;67.00;;;;;;5024979;28;20456;-59
2022/11/14 12:32:13;;;;;;;8.30;8.00;;;22.50;67.20;;;;;;5033410;28;20997;-61
2022/11/14 12:34:46;;;;;;;7.73;7.33;;;22.40;67.10;;;;;;5034028;28;20529;-59
2022/11/14 12:37:17;;;;;;;8.60;8.10;;;22.40;67.10;;;;;;5033754;28;20466;-58
2022/11/14 12:39:56;;;;;;;8.37;7.97;;;22.40;67.10;;;;;;5034446;28;20453;-54
2022/11/14 12:42:23;;;;;;;7.87;7.57;;;22.50;67.10;;;;;;5033452;28;20550;-56
2022/11/14 12:44:50;;;;;;;9.13;8.73;;;22.50;67.10;;;;;;5033136;28;20503;-54
2022/11/14 12:47:22;;;;;;;8.83;8.23;;;22.50;67.00;;;;;;5032640;28;20565;-55
2022/11/14 12:50:40;;;;;;;6.47;6.23;;;22.50;67.10;;;;;;5032838;28;20857;-56
2022/11/14 12:53:40;;;;;;;7.17;6.77;;;22.40;67.20;;;;;;5032334;28;20576;-55
2022/11/14 12:56:37;;;;;;;7.60;7.10;;;22.30;67.30;;;;;;5033119;28;20517;-58
2022/11/14 12:59:34;;;;;;;7.47;7.07;;;22.20;67.50;;;;;;5029075;28;21133;-57
2022/11/14 13:02:24;;;;;;;8.00;7.60;;;22.20;68.10;;;;;;5032790;28;20843;-54
2022/11/14 13:05:16;;;;;;;9.20;8.70;;;22.20;68.70;;;;;;5030533;28;20572;-53
2022/11/14 13:07:56;;;;;;;8.43;8.03;;;22.10;68.50;;;;;;5032144;28;20437;-51
2022/11/14 13:10:29;;;;;;;7.47;7.07;;;22.10;68.80;;;;;;5032464;28;20472;-53
2022/11/14 13:24:09;;;;;;;8.33;8.03;;;22.10;69.60;;;;;;5023454;28;20444;-56
2022/11/14 13:26:45;;;;;;;10.07;9.47;;;22.00;69.60;;;;;;5031985;28;20827;-59
2022/11/14 13:29:56;;;;;;;8.13;7.73;;;22.00;69.90;;;;;;5031963;28;20520;-57
2022/11/14 13:33:04;;;;;;;7.73;7.30;;;22.00;70.10;;;;;;5031892;28;21020;-58
2022/11/14 13:35:55;;;;;;;7.90;7.50;;;22.00;70.20;;;;;;5012192;28;20441;-57
2022/11/14 13:38:58;;;;;;;9.70;9.30;;;22.00;70.50;;;;;;5012029;28;20442;-61